sensor_id;sensor_type;location;lat;lon;timestamp;pressure;altitude;pressure_sealevel;temperature;humidity
62290;BME280;48284;46.828;29.480;2022-09-09T00:01:27;101365.66;;;24.41;52.76
62290;BME280;48284;46.828;29.480;2022-09-09T00:04:03;101374.34;;;24.42;52.53
62290;BME280;48284;46.828;29.480;2022-09-09T00:06:37;101380.38;;;24.42;52.59
62290;BME280;48284;46.828;29.480;2022-09-09T00:09:11;101383.00;;;24.42;52.74
62290;BME280;48284;46.828;29.480;2022-09-09T00:11:43;101384.03;;;24.41;52.54
62290;BME280;48284;46.828;29.480;2022-09-09T00:14:22;101381.41;;;24.41;52.54
62290;BME280;48284;46.828;29.480;2022-09-09T00:16:55;101381.41;;;24.41;52.53
62290;BME280;48284;46.828;29.480;2022-09-09T00:19:32;101386.44;;;24.43;52.48
62290;BME280;48284;46.828;29.480;2022-09-09T00:22:12;101370.13;;;24.41;52.80
62290;BME280;48284;46.828;29.480;2022-09-09T00:24:44;101388.25;;;24.42;52.63
62290;BME280;48284;46.828;29.480;2022-09-09T00:27:21;101391.47;;;24.44;52.84
62290;BME280;48284;46.828;29.480;2022-09-09T00:29:53;101390.88;;;24.42;53.17
62290;BME280;48284;46.828;29.480;2022-09-09T00:32:27;101391.47;;;24.44;53.14
62290;BME280;48284;46.828;29.480;2022-09-09T00:35:01;101389.06;;;24.43;52.63
62290;BME280;48284;46.828;29.480;2022-09-09T00:37:31;101390.66;;;24.44;52.86
62290;BME280;48284;46.828;29.480;2022-09-09T00:40:08;101389.66;;;24.45;52.59
62290;BME280;48284;46.828;29.480;2022-09-09T00:42:44;101390.09;;;24.42;52.68
62290;BME280;48284;46.828;29.480;2022-09-09T00:45:25;101384.84;;;24.42;52.79
62290;BME280;48284;46.828;29.480;2022-09-09T00:48:04;101385.06;;;24.40;53.02
62290;BME280;48284;46.828;29.480;2022-09-09T00:50:45;101386.06;;;24.39;52.95
62290;BME280;48284;46.828;29.480;2022-09-09T00:53:27;101391.09;;;24.41;53.00
62290;BME280;48284;46.828;29.480;2022-09-09T00:56:04;101391.31;;;24.39;52.81
62290;BME280;48284;46.828;29.480;2022-09-09T00:58:36;101392.13;;;24.40;52.88
62290;BME280;48284;46.828;29.480;2022-09-09T01:01:05;101390.97;;;24.36;53.23
62290;BME280;48284;46.828;29.480;2022-09-09T01:03:42;101387.97;;;24.32;53.33
62290;BME280;48284;46.828;29.480;2022-09-09T01:06:20;101391.19;;;24.34;53.15
62290;BME280;48284;46.828;29.480;2022-09-09T01:09:12;101408.09;;;24.38;52.94
62290;BME280;48284;46.828;29.480;2022-09-09T01:11:51;101397.81;;;24.37;53.08
62290;BME280;48284;46.828;29.480;2022-09-09T01:14:39;101392.34;;;24.38;53.06
62290;BME280;48284;46.828;29.480;2022-09-09T01:17:13;101388.13;;;24.37;53.15
62290;BME280;48284;46.828;29.480;2022-09-09T01:20:06;101385.28;;;24.39;53.13
62290;BME280;48284;46.828;29.480;2022-09-09T01:22:52;101392.34;;;24.38;53.13
62290;BME280;48284;46.828;29.480;2022-09-09T01:25:29;101388.69;;;24.39;52.83
62290;BME280;48284;46.828;29.480;2022-09-09T01:28:11;101391.31;;;24.39;52.83
62290;BME280;48284;46.828;29.480;2022-09-09T01:30:42;101390.31;;;24.40;52.98
62290;BME280;48284;46.828;29.480;2022-09-09T01:33:17;101388.25;;;24.42;52.92
62290;BME280;48284;46.828;29.480;2022-09-09T01:35:48;101389.28;;;24.41;52.95
62290;BME280;48284;46.828;29.480;2022-09-09T01:38:24;101388.25;;;24.42;52.68
62290;BME280;48284;46.828;29.480;2022-09-09T01:40:54;101385.63;;;24.42;52.66
62290;BME280;48284;46.828;29.480;2022-09-09T01:43:31;101390.88;;;24.42;52.68
62290;BME280;48284;46.828;29.480;2022-09-09T01:46:01;101393.50;;;24.42;52.89
62290;BME280;48284;46.828;29.480;2022-09-09T01:48:32;101392.72;;;24.42;52.93
62290;BME280;48284;46.828;29.480;2022-09-09T01:51:23;101397.38;;;24.40;52.73
62290;BME280;48284;46.828;29.480;2022-09-09T01:54:11;101391.31;;;24.39;52.95
62290;BME280;48284;46.828;29.480;2022-09-09T01:57:06;101400.78;;;24.40;53.11
62290;BME280;48284;46.828;29.480;2022-09-09T02:00:00;101389.88;;;24.43;52.85
62290;BME280;48284;46.828;29.480;2022-09-09T02:02:46;101397.38;;;24.40;52.95
62290;BME280;48284;46.828;29.480;2022-09-09T02:05:30;101402.41;;;24.41;52.84
62290;BME280;48284;46.828;29.480;2022-09-09T02:08:07;101402.19;;;24.43;52.47
62290;BME280;48284;46.828;29.480;2022-09-09T02:10:53;101402.97;;;24.43;52.83
62290;BME280;48284;46.828;29.480;2022-09-09T02:13:36;101398.75;;;24.42;52.72
62290;BME280;48284;46.828;29.480;2022-09-09T02:16:15;101404.59;;;24.44;52.56
62290;BME280;48284;46.828;29.480;2022-09-09T02:18:50;101408.44;;;24.42;52.46
62290;BME280;48284;46.828;29.480;2022-09-09T02:21:27;101416.31;;;24.42;52.47
62290;BME280;48284;46.828;29.480;2022-09-09T02:23:59;101416.31;;;24.42;52.77
62290;BME280;48284;46.828;29.480;2022-09-09T02:26:40;101410.28;;;24.41;52.50
62290;BME280;48284;46.828;29.480;2022-09-09T02:29:15;101420.75;;;24.41;52.34
62290;BME280;48284;46.828;29.480;2022-09-09T02:31:49;101420.75;;;24.41;52.72
62290;BME280;48284;46.828;29.480;2022-09-09T02:34:23;101411.28;;;24.40;52.91
62290;BME280;48284;46.828;29.480;2022-09-09T02:36:55;101397.38;;;24.40;52.82
62290;BME280;48284;46.828;29.480;2022-09-09T02:39:25;101403.41;;;24.40;52.40
62290;BME280;48284;46.828;29.480;2022-09-09T02:41:54;101405.25;;;24.40;52.30
62290;BME280;48284;46.828;29.480;2022-09-09T02:44:30;101410.28;;;24.41;52.79
62290;BME280;48284;46.828;29.480;2022-09-09T02:47:16;101410.63;;;24.45;52.62
62290;BME280;48284;46.828;29.480;2022-09-09T02:49:55;101407.22;;;24.44;52.49
62290;BME280;48284;46.828;29.480;2022-09-09T02:52:33;101406.41;;;24.44;52.34
62290;BME280;48284;46.828;29.480;2022-09-09T02:55:11;101401.38;;;24.42;52.22
62290;BME280;48284;46.828;29.480;2022-09-09T02:57:47;101401.16;;;24.44;52.52
62290;BME280;48284;46.828;29.480;2022-09-09T03:00:23;101404.59;;;24.44;52.04
62290;BME280;48284;46.828;29.480;2022-09-09T03:02:56;101404.59;;;24.44;52.62
62290;BME280;48284;46.828;29.480;2022-09-09T03:05:25;101401.16;;;24.44;52.15
62290;BME280;48284;46.828;29.480;2022-09-09T03:07:55;101410.84;;;24.43;52.59
62290;BME280;48284;46.828;29.480;2022-09-09T03:10:24;101414.72;;;24.41;52.29
62290;BME280;48284;46.828;29.480;2022-09-09T03:12:52;101411.06;;;24.42;52.27
62290;BME280;48284;46.828;29.480;2022-09-09T03:15:21;101417.13;;;24.42;52.29
62290;BME280;48284;46.828;29.480;2022-09-09T03:17:50;101422.38;;;24.42;52.37
62290;BME280;48284;46.828;29.480;2022-09-09T03:20:22;101415.31;;;24.43;52.35
62290;BME280;48284;46.828;29.480;2022-09-09T03:22:51;101416.31;;;24.42;52.19
62290;BME280;48284;46.828;29.480;2022-09-09T03:25:21;101417.13;;;24.42;52.07
62290;BME280;48284;46.828;29.480;2022-09-09T03:27:52;101423.16;;;24.43;52.35
62290;BME280;48284;46.828;29.480;2022-09-09T03:30:24;101421.34;;;24.43;52.42
62290;BME280;48284;46.828;29.480;2022-09-09T03:32:55;101425.78;;;24.43;52.25
62290;BME280;48284;46.828;29.480;2022-09-09T03:35:31;101429.22;;;24.43;52.03
62290;BME280;48284;46.828;29.480;2022-09-09T03:38:00;101424.78;;;24.44;52.57
62290;BME280;48284;46.828;29.480;2022-09-09T03:40:31;101428.41;;;24.43;52.66
62290;BME280;48284;46.828;29.480;2022-09-09T03:43:00;101425.00;;;24.42;52.31
62290;BME280;48284;46.828;29.480;2022-09-09T03:45:28;101436.50;;;24.41;52.28
62290;BME280;48284;46.828;29.480;2022-09-09T03:47:57;101420.97;;;24.40;52.15
62290;BME280;48284;46.828;29.480;2022-09-09T03:50:27;101430.69;;;24.39;52.42
62290;BME280;48284;46.828;29.480;2022-09-09T03:52:57;101435.94;;;24.39;52.64
62290;BME280;48284;46.828;29.480;2022-09-09T03:55:26;101449.03;;;24.39;52.47
62290;BME280;48284;46.828;29.480;2022-09-09T03:57:55;101441.97;;;24.40;52.23
62290;BME280;48284;46.828;29.480;2022-09-09T04:00:23;101441.97;;;24.40;52.10
62290;BME280;48284;46.828;29.480;2022-09-09T04:02:54;101432.50;;;24.39;52.25
62290;BME280;48284;46.828;29.480;2022-09-09T04:05:25;101446.41;;;24.39;52.42
62290;BME280;48284;46.828;29.480;2022-09-09T04:07:53;101441.03;;;24.34;52.76
62290;BME280;48284;46.828;29.480;2022-09-09T04:10:24;101448.75;;;24.29;52.31
62290;BME280;48284;46.828;29.480;2022-09-09T04:12:54;101449.91;;;24.33;52.44
62290;BME280;48284;46.828;29.480;2022-09-09T04:15:22;101456.75;;;24.34;52.27
62290;BME280;48284;46.828;29.480;2022-09-09T04:17:51;101458.59;;;24.34;52.73
62290;BME280;48284;46.828;29.480;2022-09-09T04:20:19;101460.19;;;24.35;52.51
62290;BME280;48284;46.828;29.480;2022-09-09T04:22:49;101463.63;;;24.35;52.56
62290;BME280;48284;46.828;29.480;2022-09-09T04:25:17;101456.75;;;24.34;52.51
62290;BME280;48284;46.828;29.480;2022-09-09T04:27:53;101458.38;;;24.35;52.43
62290;BME280;48284;46.828;29.480;2022-09-09T04:30:21;101458.94;;;24.37;52.45
62290;BME280;48284;46.828;29.480;2022-09-09T04:32:50;101461.56;;;24.37;52.36
62290;BME280;48284;46.828;29.480;2022-09-09T04:35:19;101461.56;;;24.37;52.62
62290;BME280;48284;46.828;29.480;2022-09-09T04:37:47;101455.53;;;24.37;52.63
62290;BME280;48284;46.828;29.480;2022-09-09T04:40:17;101472.88;;;24.38;52.60
62290;BME280;48284;46.828;29.480;2022-09-09T04:42:45;101472.94;;;24.31;52.26
62290;BME280;48284;46.828;29.480;2022-09-09T04:45:16;101471.53;;;24.28;52.87
62290;BME280;48284;46.828;29.480;2022-09-09T04:47:46;101465.88;;;24.32;52.46
62290;BME280;48284;46.828;29.480;2022-09-09T04:50:14;101465.66;;;24.33;52.68
62290;BME280;48284;46.828;29.480;2022-09-09T04:52:46;101461.00;;;24.35;52.32
62290;BME280;48284;46.828;29.480;2022-09-09T04:55:15;101463.47;;;24.30;52.69
62290;BME280;48284;46.828;29.480;2022-09-09T04:57:44;101456.00;;;24.27;52.62
62290;BME280;48284;46.828;29.480;2022-09-09T05:00:16;101458.00;;;24.32;52.52
62290;BME280;48284;46.828;29.480;2022-09-09T05:02:46;101462.00;;;24.34;52.71
62290;BME280;48284;46.828;29.480;2022-09-09T05:05:15;101466.44;;;24.34;52.30
62290;BME280;48284;46.828;29.480;2022-09-09T05:07:44;101456.97;;;24.33;52.67
62290;BME280;48284;46.828;29.480;2022-09-09T05:10:14;101460.41;;;24.33;52.53
62290;BME280;48284;46.828;29.480;2022-09-09T05:12:52;101461.22;;;24.34;52.24
62290;BME280;48284;46.828;29.480;2022-09-09T05:15:25;101453.13;;;24.35;52.52
62290;BME280;48284;46.828;29.480;2022-09-09T05:17:56;101454.72;;;24.36;52.17
62290;BME280;48284;46.828;29.480;2022-09-09T05:20:28;101455.53;;;24.37;52.23
62290;BME280;48284;46.828;29.480;2022-09-09T05:22:56;101455.59;;;24.30;52.28
62290;BME280;48284;46.828;29.480;2022-09-09T05:25:28;101457.78;;;24.26;52.72
62290;BME280;48284;46.828;29.480;2022-09-09T05:27:58;101450.34;;;24.30;52.60
62290;BME280;48284;46.828;29.480;2022-09-09T05:30:29;101452.75;;;24.32;52.43
62290;BME280;48284;46.828;29.480;2022-09-09T05:33:00;101452.53;;;24.33;52.29
62290;BME280;48284;46.828;29.480;2022-09-09T05:35:28;101454.94;;;24.35;52.27
62290;BME280;48284;46.828;29.480;2022-09-09T05:37:59;101455.75;;;24.35;52.27
62290;BME280;48284;46.828;29.480;2022-09-09T05:40:28;101453.13;;;24.35;52.20
62290;BME280;48284;46.828;29.480;2022-09-09T05:43:00;101450.28;;;24.37;52.48
62290;BME280;48284;46.828;29.480;2022-09-09T05:45:30;101450.88;;;24.39;53.06
62290;BME280;48284;46.828;29.480;2022-09-09T05:48:00;101444.59;;;24.40;53.51
62290;BME280;48284;46.828;29.480;2022-09-09T05:50:29;101448.03;;;24.40;54.34
62290;BME280;48284;46.828;29.480;2022-09-09T05:52:58;101438.53;;;24.39;54.02
62290;BME280;48284;46.828;29.480;2022-09-09T05:55:27;101440.16;;;24.40;54.30
62290;BME280;48284;46.828;29.480;2022-09-09T05:57:56;101442.78;;;24.40;54.21
62290;BME280;48284;46.828;29.480;2022-09-09T06:00:25;101438.53;;;24.39;54.28
62290;BME280;48284;46.828;29.480;2022-09-09T06:02:55;101435.13;;;24.39;54.27
62290;BME280;48284;46.828;29.480;2022-09-09T06:05:25;101425.88;;;24.36;54.69
62290;BME280;48284;46.828;29.480;2022-09-09T06:07:56;101429.72;;;24.34;54.42
62290;BME280;48284;46.828;29.480;2022-09-09T06:10:25;101436.00;;;24.33;54.94
62290;BME280;48284;46.828;29.480;2022-09-09T06:12:53;101427.53;;;24.31;54.77
62290;BME280;48284;46.828;29.480;2022-09-09T06:15:22;101424.13;;;24.30;54.93
62290;BME280;48284;46.828;29.480;2022-09-09T06:17:55;101423.91;;;24.32;54.57
62290;BME280;48284;46.828;29.480;2022-09-09T06:20:24;101416.03;;;24.32;55.54
62290;BME280;48284;46.828;29.480;2022-09-09T06:22:52;101426.50;;;24.32;55.54
62290;BME280;48284;46.828;29.480;2022-09-09T06:25:21;101422.06;;;24.32;55.54
62290;BME280;48284;46.828;29.480;2022-09-09T06:27:49;101421.28;;;24.32;55.98
62290;BME280;48284;46.828;29.480;2022-09-09T06:30:18;101426.50;;;24.32;56.05
62290;BME280;48284;46.828;29.480;2022-09-09T06:32:46;101425.72;;;24.31;56.01
62290;BME280;48284;46.828;29.480;2022-09-09T06:35:16;101422.28;;;24.31;55.67
62290;BME280;48284;46.828;29.480;2022-09-09T06:37:45;101421.28;;;24.32;55.68
62290;BME280;48284;46.828;29.480;2022-09-09T06:40:17;101416.81;;;24.32;55.44
62290;BME280;48284;46.828;29.480;2022-09-09T06:42:46;101420.25;;;24.33;55.59
62290;BME280;48284;46.828;29.480;2022-09-09T06:45:32;101416.81;;;24.32;55.67
62290;BME280;48284;46.828;29.480;2022-09-09T06:48:03;101417.63;;;24.33;55.85
62290;BME280;48284;46.828;29.480;2022-09-09T06:50:33;101421.06;;;24.33;55.97
62290;BME280;48284;46.828;29.480;2022-09-09T06:53:03;101427.09;;;24.34;55.99
62290;BME280;48284;46.828;29.480;2022-09-09T06:55:31;101427.09;;;24.34;55.95
62290;BME280;48284;46.828;29.480;2022-09-09T06:58:00;101432.34;;;24.34;56.08
62290;BME280;48284;46.828;29.480;2022-09-09T07:00:30;101429.72;;;24.34;56.10
62290;BME280;48284;46.828;29.480;2022-09-09T07:02:58;101425.28;;;24.34;56.25
62290;BME280;48284;46.828;29.480;2022-09-09T07:05:27;101420.91;;;24.28;56.35
62290;BME280;48284;46.828;29.480;2022-09-09T07:07:58;101429.75;;;24.27;56.20
62290;BME280;48284;46.828;29.480;2022-09-09T07:10:26;101419.66;;;24.31;56.54
62290;BME280;48284;46.828;29.480;2022-09-09T07:12:55;101420.25;;;24.33;56.40
62290;BME280;48284;46.828;29.480;2022-09-09T07:15:24;101425.50;;;24.33;56.04
62290;BME280;48284;46.828;29.480;2022-09-09T07:17:54;101428.91;;;24.33;56.06
62290;BME280;48284;46.828;29.480;2022-09-09T07:20:22;101422.06;;;24.32;56.22
62290;BME280;48284;46.828;29.480;2022-09-09T07:22:54;101428.13;;;24.33;56.07
62290;BME280;48284;46.828;29.480;2022-09-09T07:25:24;101431.53;;;24.33;55.53
62290;BME280;48284;46.828;29.480;2022-09-09T07:27:56;101429.72;;;24.34;55.33
62290;BME280;48284;46.828;29.480;2022-09-09T07:30:25;101429.50;;;24.35;55.30
62290;BME280;48284;46.828;29.480;2022-09-09T07:32:55;101430.53;;;24.34;55.42
62290;BME280;48284;46.828;29.480;2022-09-09T07:35:25;101433.16;;;24.34;54.88
62290;BME280;48284;46.828;29.480;2022-09-09T07:37:54;101434.97;;;24.34;55.33
62290;BME280;48284;46.828;29.480;2022-09-09T07:40:24;101432.19;;;24.28;54.85
62290;BME280;48284;46.828;29.480;2022-09-09T07:42:53;101430.97;;;24.24;54.99
62290;BME280;48284;46.828;29.480;2022-09-09T07:45:21;101436.78;;;24.26;54.97
62290;BME280;48284;46.828;29.480;2022-09-09T07:47:50;101441.06;;;24.27;54.63
62290;BME280;48284;46.828;29.480;2022-09-09T07:50:20;101434.81;;;24.28;54.35
62290;BME280;48284;46.828;29.480;2022-09-09T07:52:50;101435.63;;;24.29;54.33
62290;BME280;48284;46.828;29.480;2022-09-09T07:55:20;101435.41;;;24.31;54.26
62290;BME280;48284;46.828;29.480;2022-09-09T07:57:52;101426.72;;;24.30;54.28
62290;BME280;48284;46.828;29.480;2022-09-09T08:00:22;101424.13;;;24.30;54.24
62290;BME280;48284;46.828;29.480;2022-09-09T08:02:55;101418.28;;;24.28;54.04
62290;BME280;48284;46.828;29.480;2022-09-09T08:05:24;101409.56;;;24.27;54.34
62290;BME280;48284;46.828;29.480;2022-09-09T08:07:53;101413.03;;;24.28;54.21
62290;BME280;48284;46.828;29.480;2022-09-09T08:10:22;101402.53;;;24.28;54.52
62290;BME280;48284;46.828;29.480;2022-09-09T08:12:54;101396.47;;;24.27;54.04
62290;BME280;48284;46.828;29.480;2022-09-09T08:15:42;101395.47;;;24.28;54.36
62290;BME280;48284;46.828;29.480;2022-09-09T08:18:12;101390.00;;;24.30;54.04
62290;BME280;48284;46.828;29.480;2022-09-09T08:20:41;101392.84;;;24.28;54.12
62290;BME280;48284;46.828;29.480;2022-09-09T08:23:09;101393.44;;;24.31;54.06
62290;BME280;48284;46.828;29.480;2022-09-09T08:25:38;101388.41;;;24.29;54.16
62290;BME280;48284;46.828;29.480;2022-09-09T08:28:08;101393.22;;;24.32;54.30
62290;BME280;48284;46.828;29.480;2022-09-09T08:30:38;101388.56;;;24.34;54.13
62290;BME280;48284;46.828;29.480;2022-09-09T08:33:09;101391.41;;;24.33;54.40
62290;BME280;48284;46.828;29.480;2022-09-09T08:35:37;101393.00;;;24.34;54.60
62290;BME280;48284;46.828;29.480;2022-09-09T08:38:06;101394.38;;;24.36;54.49
62290;BME280;48284;46.828;29.480;2022-09-09T08:40:41;101395.19;;;24.37;54.69
62290;BME280;48284;46.828;29.480;2022-09-09T08:43:13;101382.88;;;24.37;54.79
62290;BME280;48284;46.828;29.480;2022-09-09T08:45:50;101392.56;;;24.37;54.64
62290;BME280;48284;46.828;29.480;2022-09-09T08:48:36;101388.34;;;24.36;54.51
62290;BME280;48284;46.828;29.480;2022-09-09T08:51:10;101382.50;;;24.34;54.61
62290;BME280;48284;46.828;29.480;2022-09-09T08:53:43;101386.50;;;24.36;54.11
62290;BME280;48284;46.828;29.480;2022-09-09T08:56:16;101383.31;;;24.34;53.83
62290;BME280;48284;46.828;29.480;2022-09-09T08:58:55;101373.03;;;24.33;54.16
62290;BME280;48284;46.828;29.480;2022-09-09T09:01:46;101370.41;;;24.33;53.71
62290;BME280;48284;46.828;29.480;2022-09-09T09:04:55;101370.84;;;24.30;53.71
62290;BME280;48284;46.828;29.480;2022-09-09T09:07:42;101362.75;;;24.31;54.02
62290;BME280;48284;46.828;29.480;2022-09-09T09:10:26;101363.78;;;24.30;53.67
62290;BME280;48284;46.828;29.480;2022-09-09T09:13:20;101363.19;;;24.28;53.45
62290;BME280;48284;46.828;29.480;2022-09-09T09:15:56;101363.78;;;24.30;53.78
62290;BME280;48284;46.828;29.480;2022-09-09T09:18:27;101364.34;;;24.32;53.85
62290;BME280;48284;46.828;29.480;2022-09-09T09:21:04;101369.03;;;24.30;53.54
62290;BME280;48284;46.828;29.480;2022-09-09T09:23:43;101364.00;;;24.28;53.26
62290;BME280;48284;46.828;29.480;2022-09-09T09:26:14;101362.16;;;24.29;53.18
62290;BME280;48284;46.828;29.480;2022-09-09T09:28:43;101348.84;;;24.31;53.34
62290;BME280;48284;46.828;29.480;2022-09-09T09:31:18;101347.25;;;24.30;53.05
62290;BME280;48284;46.828;29.480;2022-09-09T09:33:51;101343.81;;;24.29;52.99
62290;BME280;48284;46.828;29.480;2022-09-09T09:36:33;101339.59;;;24.28;52.88
62290;BME280;48284;46.828;29.480;2022-09-09T09:39:04;101334.13;;;24.30;53.00
62290;BME280;48284;46.828;29.480;2022-09-09T09:41:55;101328.06;;;24.29;52.25
62290;BME280;48284;46.828;29.480;2022-09-09T09:44:26;101327.84;;;24.31;51.94
62290;BME280;48284;46.828;29.480;2022-09-09T09:47:12;101324.66;;;24.28;52.09
62290;BME280;48284;46.828;29.480;2022-09-09T09:49:52;101321.22;;;24.28;52.08
62290;BME280;48284;46.828;29.480;2022-09-09T09:52:23;101322.03;;;24.28;52.96
62290;BME280;48284;46.828;29.480;2022-09-09T09:54:53;101317.94;;;24.33;53.00
62290;BME280;48284;46.828;29.480;2022-09-09T09:57:25;101321.38;;;24.33;52.83
62290;BME280;48284;46.828;29.480;2022-09-09T10:00:01;101314.50;;;24.32;52.47
62290;BME280;48284;46.828;29.480;2022-09-09T10:02:43;101315.53;;;24.31;52.43
62290;BME280;48284;46.828;29.480;2022-09-09T10:05:20;101313.94;;;24.30;52.35
62290;BME280;48284;46.828;29.480;2022-09-09T10:08:05;101307.09;;;24.29;52.40
62290;BME280;48284;46.828;29.480;2022-09-09T10:10:50;101307.88;;;24.30;52.46
62290;BME280;48284;46.828;29.480;2022-09-09T10:13:27;101308.91;;;24.28;51.98
62290;BME280;48284;46.828;29.480;2022-09-09T10:16:13;101304.47;;;24.29;52.04
62290;BME280;48284;46.828;29.480;2022-09-09T10:18:58;101307.28;;;24.27;51.95
62290;BME280;48284;46.828;29.480;2022-09-09T10:21:45;101305.25;;;24.30;51.84
62290;BME280;48284;46.828;29.480;2022-09-09T10:24:31;101302.88;;;24.28;51.84
62290;BME280;48284;46.828;29.480;2022-09-09T10:27:13;101298.59;;;24.27;51.99
62290;BME280;48284;46.828;29.480;2022-09-09T10:30:06;101296.59;;;24.29;51.65
62290;BME280;48284;46.828;29.480;2022-09-09T10:32:46;101290.56;;;24.28;51.47
62290;BME280;48284;46.828;29.480;2022-09-09T10:35:25;101291.13;;;24.31;51.05
62290;BME280;48284;46.828;29.480;2022-09-09T10:38:12;101285.66;;;24.32;51.29
62290;BME280;48284;46.828;29.480;2022-09-09T10:41:00;101289.31;;;24.31;51.33
62290;BME280;48284;46.828;29.480;2022-09-09T10:43:55;101276.19;;;24.31;51.81
62290;BME280;48284;46.828;29.480;2022-09-09T10:46:38;101274.59;;;24.30;51.43
62290;BME280;48284;46.828;29.480;2022-09-09T10:49:19;101273.56;;;24.31;51.58
62290;BME280;48284;46.828;29.480;2022-09-09T10:51:57;101267.53;;;24.31;51.54
62290;BME280;48284;46.828;29.480;2022-09-09T10:54:39;101266.72;;;24.30;51.98
62290;BME280;48284;46.828;29.480;2022-09-09T10:57:17;101260.66;;;24.30;51.55
62290;BME280;48284;46.828;29.480;2022-09-09T10:59:53;101261.47;;;24.30;51.81
62290;BME280;48284;46.828;29.480;2022-09-09T11:02:27;101261.69;;;24.28;51.62
62290;BME280;48284;46.828;29.480;2022-09-09T11:05:00;101272.75;;;24.31;52.29
62290;BME280;48284;46.828;29.480;2022-09-09T11:07:35;101266.72;;;24.30;52.00
62290;BME280;48284;46.828;29.480;2022-09-09T11:10:23;101264.09;;;24.30;52.85
62290;BME280;48284;46.828;29.480;2022-09-09T11:12:56;101266.72;;;24.30;52.93
62290;BME280;48284;46.828;29.480;2022-09-09T11:15:31;101268.09;;;24.33;53.20
62290;BME280;48284;46.828;29.480;2022-09-09T11:18:04;101263.66;;;24.33;53.17
62290;BME280;48284;46.828;29.480;2022-09-09T11:20:34;101257.38;;;24.34;53.24
62290;BME280;48284;46.828;29.480;2022-09-09T11:23:05;101263.06;;;24.31;53.43
62290;BME280;48284;46.828;29.480;2022-09-09T11:25:40;101265.91;;;24.30;53.51
62290;BME280;48284;46.828;29.480;2022-09-09T11:28:27;101257.59;;;24.33;53.52
62290;BME280;48284;46.828;29.480;2022-09-09T11:31:10;101253.97;;;24.34;52.90
62290;BME280;48284;46.828;29.480;2022-09-09T11:33:55;101251.34;;;24.34;52.31
62290;BME280;48284;46.828;29.480;2022-09-09T11:36:38;101247.13;;;24.33;52.00
62290;BME280;48284;46.828;29.480;2022-09-09T11:39:27;101253.16;;;24.33;51.49
62290;BME280;48284;46.828;29.480;2022-09-09T11:42:13;101252.81;;;24.30;52.09
62290;BME280;48284;46.828;29.480;2022-09-09T11:44:44;101252.59;;;24.31;51.78
62290;BME280;48284;46.828;29.480;2022-09-09T11:47:20;101242.88;;;24.32;51.70
62290;BME280;48284;46.828;29.480;2022-09-09T11:49:51;101238.66;;;24.31;51.49
62290;BME280;48284;46.828;29.480;2022-09-09T11:52:23;101238.44;;;24.32;51.57
62290;BME280;48284;46.828;29.480;2022-09-09T11:54:55;101231.94;;;24.35;52.07
62290;BME280;48284;46.828;29.480;2022-09-09T11:57:26;101236.19;;;24.36;51.58
62290;BME280;48284;46.828;29.480;2022-09-09T11:59:59;101233.56;;;24.36;51.54
62290;BME280;48284;46.828;29.480;2022-09-09T12:02:48;101231.50;;;24.38;51.52
62290;BME280;48284;46.828;29.480;2022-09-09T12:05:18;101239.59;;;24.36;51.20
62290;BME280;48284;46.828;29.480;2022-09-09T12:07:52;101231.72;;;24.36;50.86
62290;BME280;48284;46.828;29.480;2022-09-09T12:10:27;101223.28;;;24.34;51.05
62290;BME280;48284;46.828;29.480;2022-09-09T12:13:08;101221.47;;;24.35;50.78
62290;BME280;48284;46.828;29.480;2022-09-09T12:15:47;101217.81;;;24.36;50.75
62290;BME280;48284;46.828;29.480;2022-09-09T12:18:22;101220.44;;;24.36;50.12
62290;BME280;48284;46.828;29.480;2022-09-09T12:20:57;101210.16;;;24.34;49.98
62290;BME280;48284;46.828;29.480;2022-09-09T12:23:39;101215.19;;;24.36;50.02
62290;BME280;48284;46.828;29.480;2022-09-09T12:26:30;101210.75;;;24.36;50.18
62290;BME280;48284;46.828;29.480;2022-09-09T12:29:08;101214.16;;;24.37;49.99
62290;BME280;48284;46.828;29.480;2022-09-09T12:31:45;101210.53;;;24.38;49.54
62290;BME280;48284;46.828;29.480;2022-09-09T12:34:17;101209.50;;;24.39;49.44
62290;BME280;48284;46.828;29.480;2022-09-09T12:36:54;101205.84;;;24.40;49.62
62290;BME280;48284;46.828;29.480;2022-09-09T12:39:31;101207.22;;;24.42;49.21
62290;BME280;48284;46.828;29.480;2022-09-09T12:42:02;101212.69;;;24.41;49.62
62290;BME280;48284;46.828;29.480;2022-09-09T12:44:31;101203.22;;;24.40;49.71
62290;BME280;48284;46.828;29.480;2022-09-09T12:47:01;101195.13;;;24.41;49.62
62290;BME280;48284;46.828;29.480;2022-09-09T12:49:33;101194.09;;;24.42;49.18
62290;BME280;48284;46.828;29.480;2022-09-09T12:52:06;101195.72;;;24.43;49.31
62290;BME280;48284;46.828;29.480;2022-09-09T12:54:37;101200.72;;;24.45;49.30
62290;BME280;48284;46.828;29.480;2022-09-09T12:57:11;101200.50;;;24.46;49.78
62290;BME280;48284;46.828;29.480;2022-09-09T12:59:41;101197.88;;;24.46;49.63
62290;BME280;48284;46.828;29.480;2022-09-09T13:02:18;101200.28;;;24.48;49.36
62290;BME280;48284;46.828;29.480;2022-09-09T13:04:48;101204.72;;;24.47;49.96
62290;BME280;48284;46.828;29.480;2022-09-09T13:07:18;101202.09;;;24.47;49.98
62290;BME280;48284;46.828;29.480;2022-09-09T13:09:46;101202.78;;;24.43;49.89
62290;BME280;48284;46.828;29.480;2022-09-09T13:12:19;101197.75;;;24.41;50.05
62290;BME280;48284;46.828;29.480;2022-09-09T13:14:51;101199.94;;;24.44;49.82
62290;BME280;48284;46.828;29.480;2022-09-09T13:17:23;101202.09;;;24.47;49.85